Time;durP1;ratioP1;P1;durP2;ratioP2;P2;SDS_P1;SDS_P2;PMS_P1;PMS_P2;Temp;Humidity;BMP_temperature;BMP_pressure;BME280_temperature;BME280_humidity;BME280_pressure;Samples;Min_cycle;Max_cycle;Signal;HPM_P1;HPM_P2
2022/01/26 00:00:41;;;;;;;75.75;32.20;;;;;;;;;;5031724;28;20119;-70
2022/01/26 00:07:58;;;;;;;67.38;30.63;;;;;;;;;;5031445;28;20053;-71
2022/01/26 00:10:24;;;;;;;71.90;28.67;;;;;;;;;;5031256;28;20096;-71
2022/01/26 00:12:51;;;;;;;74.50;29.55;;;;;;;;;;5031158;28;20390;-71
2022/01/26 00:15:18;;;;;;;74.57;31.40;;;;;;;;;;5031302;28;20131;-71
2022/01/26 00:17:45;;;;;;;80.75;30.83;;;;;;;;;;5031246;28;20103;-71
2022/01/26 00:41:10;;;;;;;88.93;31.75;;;;;;;;;;5033391;28;20061;-72
2022/01/26 00:43:48;;;;;;;95.57;34.55;;;;;;;;;;5034753;28;20123;-71
2022/01/26 00:46:15;;;;;;;94.15;35.55;;;;;;;;;;5034862;28;20080;-71
2022/01/26 00:48:43;;;;;;;123.47;35.15;;;;;;;;;;5034538;28;20045;-71
2022/01/26 00:51:11;;;;;;;99.65;33.70;;;;;;;;;;5034454;28;20049;-71
2022/01/26 00:53:47;;;;;;;91.22;33.63;;;;;;;;;;5034317;28;20123;-71
2022/01/26 00:56:14;;;;;;;97.95;35.30;;;;;;;;;;5034686;28;20053;-71
2022/01/26 00:58:41;;;;;;;101.65;34.70;;;;;;;;;;5034536;28;20053;-71
2022/01/26 01:01:07;;;;;;;109.78;38.35;;;;;;;;;;5034429;28;20057;-70
2022/01/26 01:03:36;;;;;;;128.98;40.80;;;;;;;;;;5034269;28;20523;-71
2022/01/26 01:06:13;;;;;;;103.97;36.92;;;;;;;;;;5034298;28;20054;-71
2022/01/26 01:08:41;;;;;;;104.70;35.00;;;;;;;;;;5034161;28;20054;-71
2022/01/26 01:11:08;;;;;;;109.72;35.05;;;;;;;;;;5034221;28;20092;-71
2022/01/26 01:13:39;;;;;;;91.70;34.55;;;;;;;;;;5033763;28;20558;-70
2022/01/26 01:16:07;;;;;;;102.50;33.80;;;;;;;;;;5034319;28;20111;-70
2022/01/26 01:19:13;;;;;;;112.93;35.42;;;;;;;;;;5033880;28;20563;-70
2022/01/26 01:27:08;;;;;;;109.28;34.53;;;;;;;;;;5014267;28;20070;-71
2022/01/26 01:29:55;;;;;;;132.80;33.08;;;;;;;;;;5019200;28;20501;-71
2022/01/26 01:32:30;;;;;;;94.97;31.45;;;;;;;;;;5014614;28;20293;-71
2022/01/26 01:34:59;;;;;;;102.15;35.20;;;;;;;;;;5014361;28;20049;-71
2022/01/26 01:37:26;;;;;;;104.45;33.08;;;;;;;;;;5013950;28;20054;-71
2022/01/26 01:39:53;;;;;;;107.57;35.60;;;;;;;;;;5014081;28;20556;-71
2022/01/26 01:42:19;;;;;;;94.90;34.45;;;;;;;;;;5014077;28;20100;-71
2022/01/26 01:44:46;;;;;;;98.00;34.45;;;;;;;;;;5013673;28;20050;-71
2022/01/26 01:47:12;;;;;;;94.05;32.85;;;;;;;;;;5013880;28;20419;-71
2022/01/26 01:49:39;;;;;;;107.35;35.75;;;;;;;;;;5018439;28;20037;-72
2022/01/26 01:52:12;;;;;;;111.47;35.22;;;;;;;;;;5031874;28;20103;-72
2022/01/26 01:54:40;;;;;;;;;;;;;;;;;;5033862;28;20132;-72
2022/01/26 01:57:07;;;;;;;98.55;34.30;;;;;;;;;;5033453;28;19921;-72
2022/01/26 01:59:34;;;;;;;107.95;35.08;;;;;;;;;;5032022;28;20049;-70
2022/01/26 02:02:01;;;;;;;92.13;33.55;;;;;;;;;;5033454;28;20085;-71
2022/01/26 02:04:28;;;;;;;113.53;35.67;;;;;;;;;;5032805;28;20053;-70
2022/01/26 02:06:55;;;;;;;100.05;35.33;;;;;;;;;;5033328;28;20052;-72
2022/01/26 02:09:22;;;;;;;120.97;34.70;;;;;;;;;;5033069;28;20046;-71
2022/01/26 02:11:53;;;;;;;107.88;35.22;;;;;;;;;;5033201;28;20106;-70
2022/01/26 02:14:36;;;;;;;83.32;32.95;;;;;;;;;;5032797;28;20092;-71
2022/01/26 02:55:35;;;;;;;54.28;23.60;;;;;;;;;;5031946;28;20049;-71
2022/01/26 02:59:03;;;;;;;47.60;22.15;;;;;;;;;;5032176;28;20087;-71
2022/01/26 03:06:11;;;;;;;46.30;21.58;;;;;;;;;;5032244;28;20056;-71
2022/01/26 03:08:43;;;;;;;48.47;22.23;;;;;;;;;;5012202;28;20058;-71
2022/01/26 03:11:14;;;;;;;49.33;21.25;;;;;;;;;;5012487;28;20112;-72
2022/01/26 03:13:50;;;;;;;48.55;20.73;;;;;;;;;;5011977;28;20501;-71
2022/01/26 03:16:56;;;;;;;54.47;22.15;;;;;;;;;;5013531;28;20108;-71
2022/01/26 03:19:23;;;;;;;60.30;24.03;;;;;;;;;;5029242;28;20527;-72
2022/01/26 03:29:57;;;;;;;57.25;23.05;;;;;;;;;;5032178;28;20107;-72
2022/01/26 03:35:48;;;;;;;47.58;20.90;;;;;;;;;;5030429;28;20562;-70
2022/01/26 03:38:03;;;;;;;58.33;22.70;;;;;;;;;;5028574;28;20095;-71
2022/01/26 03:40:33;;;;;;;56.78;23.73;;;;;;;;;;5031918;28;20405;-71
2022/01/26 03:43:00;;;;;;;58.63;23.83;;;;;;;;;;5031513;28;20049;-71
2022/01/26 03:45:27;;;;;;;57.40;23.40;;;;;;;;;;5031679;28;20099;-71
2022/01/26 03:47:55;;;;;;;49.88;20.67;;;;;;;;;;5014345;28;20096;-71
2022/01/26 03:50:25;;;;;;;50.60;19.77;;;;;;;;;;5031687;28;20056;-70
2022/01/26 03:52:52;;;;;;;50.15;22.38;;;;;;;;;;5031522;28;20085;-71
2022/01/26 03:55:18;;;;;;;58.78;23.95;;;;;;;;;;5031626;28;20076;-71
2022/01/26 03:57:45;;;;;;;53.33;21.27;;;;;;;;;;5031443;28;20416;-71
2022/01/26 04:00:12;;;;;;;51.72;22.33;;;;;;;;;;5031697;28;20050;-71
2022/01/26 04:02:39;;;;;;;53.53;20.98;;;;;;;;;;5031291;28;20509;-71
2022/01/26 04:05:10;;;;;;;51.67;20.42;;;;;;;;;;5054927;22;20469;-66
2022/01/26 04:07:37;;;;;;;55.70;22.38;;;;;;;;;;5031475;28;20114;-66
2022/01/26 04:10:16;;;;;;;57.47;21.02;;;;;;;;;;5030407;28;20075;-67
2022/01/26 04:12:43;;;;;;;54.78;23.25;;;;;;;;;;5030399;28;20060;-66
2022/01/26 04:15:21;;;;;;;61.50;23.58;;;;;;;;;;5034861;28;20053;-68
2022/01/26 04:17:48;;;;;;;63.22;23.38;;;;;;;;;;5034303;28;20045;-67
2022/01/26 04:20:15;;;;;;;57.88;23.02;;;;;;;;;;5035549;28;20079;-66
2022/01/26 04:22:52;;;;;;;61.20;22.38;;;;;;;;;;5035188;28;20466;-66
2022/01/26 04:25:22;;;;;;;51.80;22.20;;;;;;;;;;5035280;28;20053;-67
2022/01/26 04:27:52;;;;;;;56.90;22.23;;;;;;;;;;5034915;28;20499;-67
2022/01/26 04:30:19;;;;;;;56.47;23.05;;;;;;;;;;5035000;28;20500;-67
2022/01/26 04:32:46;;;;;;;58.85;22.67;;;;;;;;;;5035034;28;20496;-66
2022/01/26 04:35:12;;;;;;;54.75;21.48;;;;;;;;;;5033791;28;20046;-68
2022/01/26 04:40:24;;;;;;;51.55;21.00;;;;;;;;;;5035031;28;20045;-66
2022/01/26 04:42:58;;;;;;;56.20;23.30;;;;;;;;;;5035521;28;20115;-66
2022/01/26 04:45:25;;;;;;;59.10;23.95;;;;;;;;;;5033446;28;20172;-68
2022/01/26 04:47:51;;;;;;;56.25;22.00;;;;;;;;;;5034916;28;20053;-67
2022/01/26 04:50:18;;;;;;;61.15;24.17;;;;;;;;;;5035225;28;20462;-66
2022/01/26 04:52:46;;;;;;;57.85;24.10;;;;;;;;;;5001026;28;20506;-67
2022/01/26 04:55:13;;;;;;;58.90;23.27;;;;;;;;;;5033728;28;20060;-68
2022/01/26 04:57:40;;;;;;;60.80;23.73;;;;;;;;;;5017249;28;20060;-66
2022/01/26 05:00:08;;;;;;;58.20;22.58;;;;;;;;;;5034775;28;20459;-67
2022/01/26 05:02:34;;;;;;;66.15;24.50;;;;;;;;;;5000945;28;20054;-66
2022/01/26 05:05:01;;;;;;;64.35;23.98;;;;;;;;;;5033257;28;20100;-67
2022/01/26 05:07:28;;;;;;;63.42;24.58;;;;;;;;;;5033526;28;20053;-68
2022/01/26 05:09:55;;;;;;;61.97;25.17;;;;;;;;;;5000942;28;20046;-67
2022/01/26 05:12:23;;;;;;;63.70;24.65;;;;;;;;;;5032960;28;20053;-67
2022/01/26 05:14:50;;;;;;;61.97;24.52;;;;;;;;;;5016857;28;20076;-68
2022/01/26 05:17:20;;;;;;;58.55;23.45;;;;;;;;;;5034460;28;20049;-67
2022/01/26 05:19:47;;;;;;;72.93;26.27;;;;;;;;;;5034314;28;20046;-67
2022/01/26 05:22:14;;;;;;;63.25;24.17;;;;;;;;;;5016927;28;20049;-67
2022/01/26 05:24:41;;;;;;;62.35;24.95;;;;;;;;;;5033322;28;20054;-67
2022/01/26 05:27:07;;;;;;;64.45;24.05;;;;;;;;;;5032721;28;20107;-67
2022/01/26 05:29:34;;;;;;;67.13;24.63;;;;;;;;;;5034186;28;20107;-68
2022/01/26 05:32:00;;;;;;;67.57;24.52;;;;;;;;;;5032986;28;20056;-66
2022/01/26 05:34:27;;;;;;;62.20;23.67;;;;;;;;;;5032922;28;20060;-67
2022/01/26 05:36:54;;;;;;;66.45;25.10;;;;;;;;;;5033303;28;20115;-66
2022/01/26 05:39:20;;;;;;;60.85;25.30;;;;;;;;;;5032757;28;20045;-66
2022/01/26 05:41:47;;;;;;;66.75;26.02;;;;;;;;;;5032808;28;20056;-66
2022/01/26 05:44:14;;;;;;;68.18;23.65;;;;;;;;;;5032175;28;20486;-66
2022/01/26 05:46:45;;;;;;;63.85;24.40;;;;;;;;;;5032643;28;20088;-67
2022/01/26 05:49:13;;;;;;;66.70;25.05;;;;;;;;;;5032610;28;20046;-66
2022/01/26 05:51:40;;;;;;;68.60;25.02;;;;;;;;;;5032593;28;20049;-66
2022/01/26 05:54:09;;;;;;;58.10;24.42;;;;;;;;;;5016028;28;20049;-66
2022/01/26 05:56:36;;;;;;;74.85;24.95;;;;;;;;;;5032546;28;20515;-66
2022/01/26 05:59:02;;;;;;;82.97;26.08;;;;;;;;;;5032256;28;20041;-66
2022/01/26 06:01:29;;;;;;;82.05;27.13;;;;;;;;;;5032297;28;20047;-67
2022/01/26 06:03:56;;;;;;;87.38;27.85;;;;;;;;;;5032067;28;20582;-67
2022/01/26 06:06:23;;;;;;;70.68;26.42;;;;;;;;;;5032332;28;20045;-68
2022/01/26 06:08:49;;;;;;;65.22;24.95;;;;;;;;;;5032292;28;20049;-67
2022/01/26 06:11:16;;;;;;;66.78;23.27;;;;;;;;;;5033209;28;20053;-66
2022/01/26 06:13:42;;;;;;;59.10;23.98;;;;;;;;;;5032810;28;20076;-67
2022/01/26 06:16:09;;;;;;;53.35;23.13;;;;;;;;;;5033380;28;20053;-69
2022/01/26 06:18:36;;;;;;;55.58;23.98;;;;;;;;;;5033124;28;20045;-67
2022/01/26 06:21:02;;;;;;;51.90;21.48;;;;;;;;;;5033144;28;20471;-66
2022/01/26 06:23:29;;;;;;;51.80;22.98;;;;;;;;;;5031693;28;20050;-66
2022/01/26 06:25:57;;;;;;;62.47;23.20;;;;;;;;;;5033247;28;20084;-67
2022/01/26 06:28:26;;;;;;;58.30;24.02;;;;;;;;;;5031935;28;20045;-68
2022/01/26 06:31:04;;;;;;;63.00;24.42;;;;;;;;;;5032088;28;20096;-66
2022/01/26 06:33:33;;;;;;;56.75;23.10;;;;;;;;;;4999523;28;20435;-66
2022/01/26 06:36:00;;;;;;;57.65;23.17;;;;;;;;;;5015371;28;20095;-67
2022/01/26 06:38:30;;;;;;;55.65;22.48;;;;;;;;;;5030385;28;20064;-66
2022/01/26 06:40:58;;;;;;;59.13;23.65;;;;;;;;;;5029890;28;20096;-67
2022/01/26 06:43:28;;;;;;;59.30;22.23;;;;;;;;;;5013239;28;20083;-67
2022/01/26 06:46:01;;;;;;;52.65;21.38;;;;;;;;;;5030913;28;20140;-66
2022/01/26 06:51:12;;;;;;;58.22;23.35;;;;;;;;;;5030392;28;20413;-66
2022/01/26 06:53:39;;;;;;;55.63;22.58;;;;;;;;;;5012781;28;20352;-66
2022/01/26 06:56:06;;;;;;;70.72;27.05;;;;;;;;;;5012481;28;20111;-67
2022/01/26 06:58:33;;;;;;;61.60;23.25;;;;;;;;;;5012573;28;20061;-67
2022/01/26 07:00:59;;;;;;;59.65;24.52;;;;;;;;;;5030361;28;20045;-66
2022/01/26 07:03:26;;;;;;;68.45;25.98;;;;;;;;;;5030148;28;20053;-66
2022/01/26 07:05:53;;;;;;;58.92;24.52;;;;;;;;;;5037854;28;20045;-68
2022/01/26 07:08:19;;;;;;;65.93;23.65;;;;;;;;;;5031075;28;20053;-67
2022/01/26 07:10:48;;;;;;;61.22;23.10;;;;;;;;;;5042832;28;20105;-67
2022/01/26 07:13:15;;;;;;;74.10;26.65;;;;;;;;;;5030251;28;20250;-67
2022/01/26 07:23:41;;;;;;;68.50;24.35;;;;;;;;;;5029483;28;20453;-66
2022/01/26 07:26:08;;;;;;;62.60;23.48;;;;;;;;;;5030251;28;20614;-66
2022/01/26 07:28:37;;;;;;;66.55;24.67;;;;;;;;;;5028639;28;20045;-66
2022/01/26 07:31:08;;;;;;;56.80;22.90;;;;;;;;;;5028895;28;20046;-65
2022/01/26 07:33:35;;;;;;;67.93;23.48;;;;;;;;;;5028666;28;20558;-67
2022/01/26 07:36:01;;;;;;;61.15;24.25;;;;;;;;;;5028783;28;20045;-66
2022/01/26 07:38:28;;;;;;;69.72;24.90;;;;;;;;;;5029700;28;20107;-66
2022/01/26 07:40:55;;;;;;;63.85;22.77;;;;;;;;;;5028675;28;20469;-65
2022/01/26 07:43:22;;;;;;;64.00;24.65;;;;;;;;;;5029034;28;20085;-65
2022/01/26 07:45:49;;;;;;;64.80;23.15;;;;;;;;;;5029780;28;20049;-66
2022/01/26 07:48:15;;;;;;;58.42;23.38;;;;;;;;;;5029174;28;20045;-66
2022/01/26 07:50:42;;;;;;;61.30;23.55;;;;;;;;;;5029900;28;20038;-65
2022/01/26 07:53:15;;;;;;;58.75;23.85;;;;;;;;;;5027916;28;20046;-65
2022/01/26 07:55:42;;;;;;;57.92;23.65;;;;;;;;;;5029642;28;20076;-67
2022/01/26 07:58:09;;;;;;;65.28;23.98;;;;;;;;;;5011565;28;20102;-66
2022/01/26 08:00:37;;;;;;;56.45;22.85;;;;;;;;;;5029336;28;20053;-66
2022/01/26 08:03:03;;;;;;;61.58;22.25;;;;;;;;;;5029935;28;20053;-66
2022/01/26 08:05:30;;;;;;;61.35;22.30;;;;;;;;;;5028126;28;20075;-65
2022/01/26 08:07:57;;;;;;;62.17;23.33;;;;;;;;;;5028459;28;20045;-66
2022/01/26 08:10:24;;;;;;;63.95;24.15;;;;;;;;;;5028389;28;20127;-65
2022/01/26 08:12:51;;;;;;;66.97;23.58;;;;;;;;;;5028192;28;20052;-65
2022/01/26 08:15:24;;;;;;;62.80;23.83;;;;;;;;;;5029048;28;20053;-66
2022/01/26 08:17:51;;;;;;;64.35;23.10;;;;;;;;;;5011762;28;20056;-66
2022/01/26 08:20:18;;;;;;;67.20;26.02;;;;;;;;;;5028154;28;20099;-66
2022/01/26 08:22:44;;;;;;;66.15;24.92;;;;;;;;;;5028220;28;20107;-67
2022/01/26 08:25:11;;;;;;;69.43;26.08;;;;;;;;;;5029337;28;20049;-65
2022/01/26 08:27:47;;;;;;;73.97;27.02;;;;;;;;;;5029291;28;20057;-67
2022/01/26 08:30:18;;;;;;;62.20;24.02;;;;;;;;;;5003987;28;20049;-66
2022/01/26 08:32:45;;;;;;;59.10;24.38;;;;;;;;;;4998334;28;20821;-71
2022/01/26 08:35:12;;;;;;;62.90;24.67;;;;;;;;;;5028792;28;20077;-72
2022/01/26 08:37:40;;;;;;;66.25;24.80;;;;;;;;;;4998168;28;20065;-70
2022/01/26 08:40:08;;;;;;;61.38;23.70;;;;;;;;;;4989011;28;20068;-69
2022/01/26 08:42:37;;;;;;;62.88;24.33;;;;;;;;;;5015250;28;20581;-70
2022/01/26 08:45:05;;;;;;;59.72;24.58;;;;;;;;;;5015530;28;20108;-69
2022/01/26 08:47:32;;;;;;;59.50;22.92;;;;;;;;;;5009295;28;20053;-69
2022/01/26 08:49:58;;;;;;;64.55;25.40;;;;;;;;;;5016379;28;20787;-70
2022/01/26 08:52:25;;;;;;;58.70;22.95;;;;;;;;;;4998701;28;20460;-65
2022/01/26 08:54:51;;;;;;;68.18;23.65;;;;;;;;;;5017245;28;20107;-69
2022/01/26 08:57:18;;;;;;;58.45;23.85;;;;;;;;;;5019899;28;20052;-66
2022/01/26 08:59:45;;;;;;;57.95;23.65;;;;;;;;;;5018399;28;20483;-66
2022/01/26 09:02:12;;;;;;;58.10;23.23;;;;;;;;;;5022690;28;20091;-67
2022/01/26 09:04:39;;;;;;;63.95;23.15;;;;;;;;;;5018874;28;20447;-66
2022/01/26 09:07:05;;;;;;;61.65;23.52;;;;;;;;;;5019427;28;20468;-65
2022/01/26 09:09:42;;;;;;;58.55;22.05;;;;;;;;;;5024293;28;20054;-67
2022/01/26 09:12:10;;;;;;;61.42;23.70;;;;;;;;;;5021813;28;20505;-65
2022/01/26 09:14:37;;;;;;;59.28;22.10;;;;;;;;;;5020588;28;20393;-66
2022/01/26 09:17:05;;;;;;;61.47;25.23;;;;;;;;;;5019902;28;20045;-67
2022/01/26 09:19:33;;;;;;;61.92;24.42;;;;;;;;;;5020555;28;20489;-65
2022/01/26 09:22:03;;;;;;;62.92;23.90;;;;;;;;;;5024531;28;20077;-65
2022/01/26 09:24:31;;;;;;;52.00;22.15;;;;;;;;;;5020854;28;20463;-65
2022/01/26 09:26:58;;;;;;;70.70;25.48;;;;;;;;;;5023284;28;20049;-65
2022/01/26 09:29:25;;;;;;;59.40;23.35;;;;;;;;;;5036918;28;20073;-67
2022/01/26 09:31:52;;;;;;;59.30;22.50;;;;;;;;;;5020728;28;20045;-65
2022/01/26 09:34:21;;;;;;;59.70;24.52;;;;;;;;;;5019964;28;20129;-66
2022/01/26 09:36:48;;;;;;;48.95;20.50;;;;;;;;;;5034211;28;20049;-65
2022/01/26 09:39:17;;;;;;;50.05;20.75;;;;;;;;;;5020317;28;20108;-67
2022/01/26 09:41:45;;;;;;;53.45;20.08;;;;;;;;;;5020815;28;20050;-65
2022/01/26 09:44:13;;;;;;;48.40;20.73;;;;;;;;;;5018968;28;20042;-66
2022/01/26 09:46:40;;;;;;;42.08;19.00;;;;;;;;;;5017721;28;20056;-65
2022/01/26 09:49:08;;;;;;;46.15;19.58;;;;;;;;;;5003978;28;20133;-65
2022/01/26 09:51:40;;;;;;;42.13;18.77;;;;;;;;;;5004185;28;20076;-66
2022/01/26 09:54:11;;;;;;;45.88;18.52;;;;;;;;;;5019624;28;20049;-65
2022/01/26 09:56:38;;;;;;;49.72;19.83;;;;;;;;;;5019288;28;20570;-66
2022/01/26 09:59:06;;;;;;;44.53;20.00;;;;;;;;;;5019739;28;20071;-65
2022/01/26 10:01:42;;;;;;;46.03;19.75;;;;;;;;;;5035360;28;21162;-66
2022/01/26 10:04:33;;;;;;;52.40;21.52;;;;;;;;;;5043933;22;20052;-70
2022/01/26 10:10:31;;;;;;;50.38;21.65;;;;;;;;;;5028618;28;20045;-70
2022/01/26 10:15:47;;;;;;;51.00;22.83;;;;;;;;;;5043432;28;20045;-70
2022/01/26 10:18:21;;;;;;;56.20;20.02;;;;;;;;;;5031363;28;20125;-70
2022/01/26 10:20:57;;;;;;;54.55;22.38;;;;;;;;;;5030242;28;20107;-71
2022/01/26 10:23:25;;;;;;;50.78;21.30;;;;;;;;;;5032014;28;20427;-71
2022/01/26 10:26:01;;;;;;;56.88;22.10;;;;;;;;;;5032207;28;20512;-69
2022/01/26 10:28:59;;;;;;;50.38;20.15;;;;;;;;;;5037786;28;20054;-72
2022/01/26 10:31:39;;;;;;;50.88;21.10;;;;;;;;;;5030794;28;20080;-71
2022/01/26 10:34:13;;;;;;;57.15;21.55;;;;;;;;;;5031346;28;20088;-71
2022/01/26 10:36:48;;;;;;;51.75;22.63;;;;;;;;;;5030669;28;20112;-71
2022/01/26 10:41:51;;;;;;;56.67;23.25;;;;;;;;;;5031053;28;20041;-70
2022/01/26 10:44:35;;;;;;;49.63;21.70;;;;;;;;;;5030862;28;20092;-70
2022/01/26 10:47:04;;;;;;;50.35;21.55;;;;;;;;;;5030671;28;20049;-71
2022/01/26 10:49:54;;;;;;;48.78;21.33;;;;;;;;;;5031102;28;20053;-69
2022/01/26 10:52:35;;;;;;;55.05;20.90;;;;;;;;;;5025130;28;20050;-71
2022/01/26 10:55:02;;;;;;;53.00;21.08;;;;;;;;;;5032343;28;20405;-71
2022/01/26 10:57:29;;;;;;;48.38;22.10;;;;;;;;;;5032252;28;20497;-71
2022/01/26 10:59:56;;;;;;;58.97;23.98;;;;;;;;;;5032204;28;20496;-71
2022/01/26 11:02:29;;;;;;;48.33;20.85;;;;;;;;;;5032328;28;20057;-71
2022/01/26 11:04:56;;;;;;;55.58;22.83;;;;;;;;;;5016822;28;20049;-71
2022/01/26 11:07:37;;;;;;;51.25;20.67;;;;;;;;;;5032178;28;20056;-71
2022/01/26 11:10:06;;;;;;;50.15;21.25;;;;;;;;;;5032210;28;20049;-71
2022/01/26 11:12:34;;;;;;;47.65;20.00;;;;;;;;;;5032251;28;20049;-71
2022/01/26 11:15:06;;;;;;;45.88;17.85;;;;;;;;;;5032202;28;20393;-70
2022/01/26 11:17:36;;;;;;;42.50;19.65;;;;;;;;;;5032414;28;20459;-70
2022/01/26 11:20:21;;;;;;;46.50;21.30;;;;;;;;;;5032159;28;20092;-70
2022/01/26 11:22:52;;;;;;;49.83;21.10;;;;;;;;;;5031336;28;20061;-68
2022/01/26 11:25:19;;;;;;;49.65;20.73;;;;;;;;;;5031977;28;20496;-70
2022/01/26 11:27:46;;;;;;;46.65;20.25;;;;;;;;;;5030561;28;20057;-69
2022/01/26 11:30:26;;;;;;;43.20;19.20;;;;;;;;;;5032075;28;20049;-70
2022/01/26 11:32:59;;;;;;;50.55;19.73;;;;;;;;;;5031987;28;20455;-71
2022/01/26 11:35:34;;;;;;;50.97;20.52;;;;;;;;;;5031803;28;20084;-71
2022/01/26 11:38:16;;;;;;;51.45;20.15;;;;;;;;;;5031963;28;20053;-71
2022/01/26 11:46:35;;;;;;;45.47;19.23;;;;;;;;;;5030756;28;20053;-71
2022/01/26 11:49:05;;;;;;;44.28;19.00;;;;;;;;;;5031677;28;20288;-71
2022/01/26 11:51:49;;;;;;;48.50;18.75;;;;;;;;;;5031259;28;20048;-71
2022/01/26 11:54:21;;;;;;;45.17;18.30;;;;;;;;;;5030620;28;20050;-71
2022/01/26 11:57:08;;;;;;;42.90;18.95;;;;;;;;;;5031884;28;20053;-71
2022/01/26 11:59:41;;;;;;;47.75;18.92;;;;;;;;;;5031569;28;20095;-71
2022/01/26 12:05:17;;;;;;;38.53;16.90;;;;;;;;;;5030941;28;20096;-70
2022/01/26 12:07:54;;;;;;;46.50;19.27;;;;;;;;;;5031380;28;20049;-70
2022/01/26 12:10:29;;;;;;;40.30;18.45;;;;;;;;;;5031815;28;20103;-71
2022/01/26 12:13:03;;;;;;;41.47;17.15;;;;;;;;;;5031428;28;20053;-70
2022/01/26 12:15:38;;;;;;;42.45;17.73;;;;;;;;;;5030979;28;20461;-71
2022/01/26 12:18:27;;;;;;;39.42;17.23;;;;;;;;;;5031402;28;20107;-70
2022/01/26 12:32:23;;;;;;;42.65;17.80;;;;;;;;;;5011704;28;20054;-72
2022/01/26 12:35:06;;;;;;;44.75;18.33;;;;;;;;;;5013798;28;20046;-72
2022/01/26 12:37:58;;;;;;;38.33;16.73;;;;;;;;;;5031016;28;20049;-73
2022/01/26 12:43:18;;;;;;;43.33;18.58;;;;;;;;;;5032888;28;20049;-72
2022/01/26 12:45:55;;;;;;;45.65;17.83;;;;;;;;;;5032743;28;20404;-72
2022/01/26 12:48:22;;;;;;;40.08;17.98;;;;;;;;;;5032435;28;20062;-70
2022/01/26 12:50:48;;;;;;;46.63;19.15;;;;;;;;;;5032386;28;20049;-72
2022/01/26 12:53:21;;;;;;;39.35;17.52;;;;;;;;;;5031405;28;20050;-72
2022/01/26 12:55:53;;;;;;;47.43;18.53;;;;;;;;;;5031671;28;20458;-72
2022/01/26 12:58:30;;;;;;;49.03;19.67;;;;;;;;;;5032406;28;20049;-71
2022/01/26 13:01:29;;;;;;;44.35;18.73;;;;;;;;;;5032182;28;20829;-72
2022/01/26 13:03:58;;;;;;;41.05;18.40;;;;;;;;;;5010782;28;20054;-71
2022/01/26 13:06:28;;;;;;;43.67;18.70;;;;;;;;;;5019879;28;20081;-72
2022/01/26 13:08:59;;;;;;;46.75;20.35;;;;;;;;;;5031195;28;20049;-72
2022/01/26 13:11:30;;;;;;;42.47;18.85;;;;;;;;;;5015074;28;20308;-71
2022/01/26 13:14:19;;;;;;;44.95;18.42;;;;;;;;;;5031033;28;20137;-71
2022/01/26 13:17:02;;;;;;;51.15;19.10;;;;;;;;;;5030502;28;20054;-72
2022/01/26 13:19:40;;;;;;;50.80;20.33;;;;;;;;;;5030484;28;20081;-72
2022/01/26 13:25:01;;;;;;;46.13;19.38;;;;;;;;;;5034167;28;20050;-72
2022/01/26 13:30:10;;;;;;;54.83;20.98;;;;;;;;;;5021160;28;20266;-73
2022/01/26 13:35:29;;;;;;;49.97;20.52;;;;;;;;;;5031731;28;20570;-71
2022/01/26 13:38:13;;;;;;;52.95;19.63;;;;;;;;;;5030603;28;20099;-73
2022/01/26 13:41:01;;;;;;;42.47;16.48;;;;;;;;;;5029267;28;20505;-71
2022/01/26 13:44:12;;;;;;;41.40;18.00;;;;;;;;;;5031476;28;20099;-72
2022/01/26 13:47:10;;;;;;;40.53;18.20;;;;;;;;;;5031311;28;20067;-73
2022/01/26 13:49:40;;;;;;;48.30;19.10;;;;;;;;;;5028387;28;20050;-71
2022/01/26 13:59:54;;;;;;;41.40;16.83;;;;;;;;;;5031910;28;20103;-71
2022/01/26 14:02:22;;;;;;;48.08;18.63;;;;;;;;;;5031081;28;20053;-69
2022/01/26 14:04:54;;;;;;;41.13;17.20;;;;;;;;;;5030319;28;20057;-70
2022/01/26 14:07:21;;;;;;;41.92;16.10;;;;;;;;;;5032097;28;20052;-69
2022/01/26 14:09:47;;;;;;;47.50;18.60;;;;;;;;;;5031783;28;20457;-68
2022/01/26 14:12:17;;;;;;;55.55;19.25;;;;;;;;;;5032531;28;20042;-67
2022/01/26 14:14:46;;;;;;;45.00;17.70;;;;;;;;;;5031466;28;20079;-69
2022/01/26 14:17:23;;;;;;;48.40;18.73;;;;;;;;;;5033071;28;20049;-70
2022/01/26 14:20:07;;;;;;;47.20;19.02;;;;;;;;;;5033203;28;20107;-72
2022/01/26 14:22:48;;;;;;;44.25;17.55;;;;;;;;;;5030298;28;20041;-73
2022/01/26 14:25:26;;;;;;;42.80;17.90;;;;;;;;;;5029431;28;20350;-69
2022/01/26 14:27:57;;;;;;;46.97;18.58;;;;;;;;;;5031481;28;20053;-71
2022/01/26 14:33:35;;;;;;;41.90;17.20;;;;;;;;;;5028808;28;20458;-71
2022/01/26 15:40:53;;;;;;;34.05;14.23;;;;;;;;;;5029389;28;20106;-66
2022/01/26 15:51:11;;;;;;;48.17;15.50;;;;;;;;;;5030621;28;20049;-67
2022/01/26 15:59:24;;;;;;;34.65;14.85;;;;;;;;;;5028417;28;20179;-65
2022/01/26 16:07:39;;;;;;;30.23;12.93;;;;;;;;;;5049351;23;20053;-66
2022/01/26 16:16:28;;;;;;;33.42;13.85;;;;;;;;;;5023470;28;20553;-66
2022/01/26 16:21:25;;;;;;;37.08;14.82;;;;;;;;;;5014509;28;20050;-65
2022/01/26 17:02:36;;;;;;;42.00;16.20;;;;;;;;;;5012632;28;20045;-70
2022/01/26 17:24:26;;;;;;;40.25;17.30;;;;;;;;;;4993615;28;20073;-67
2022/01/26 18:16:38;;;;;;;42.17;17.90;;;;;;;;;;5012092;28;20500;-70
2022/01/26 18:32:46;;;;;;;38.72;17.10;;;;;;;;;;5004231;28;20045;-74
2022/01/26 18:49:19;;;;;;;34.30;16.25;;;;;;;;;;5001945;28;20520;-68
2022/01/26 18:51:49;;;;;;;34.28;15.25;;;;;;;;;;5007895;28;20111;-65
2022/01/26 18:54:16;;;;;;;38.63;16.58;;;;;;;;;;5009250;28;20093;-65
2022/01/26 18:56:45;;;;;;;38.28;16.17;;;;;;;;;;4988081;28;20050;-65
2022/01/26 18:59:12;;;;;;;40.78;16.63;;;;;;;;;;5007727;28;20050;-66
2022/01/26 19:01:39;;;;;;;41.88;16.98;;;;;;;;;;5017935;28;20066;-67
2022/01/26 19:04:31;;;;;;;43.55;18.48;;;;;;;;;;5002212;28;20412;-69
2022/01/26 19:06:58;;;;;;;42.50;17.80;;;;;;;;;;5008032;28;20611;-65
2022/01/26 19:09:28;;;;;;;40.88;16.42;;;;;;;;;;4992939;28;20053;-66
2022/01/26 19:11:56;;;;;;;40.95;16.98;;;;;;;;;;5007865;28;20099;-68
2022/01/26 19:14:26;;;;;;;37.88;16.17;;;;;;;;;;5001867;28;20094;-71
2022/01/26 19:17:03;;;;;;;45.45;17.30;;;;;;;;;;5007169;28;20061;-66
2022/01/26 19:25:04;;;;;;;39.97;16.65;;;;;;;;;;5006314;28;20058;-67
2022/01/26 19:50:57;;;;;;;44.47;17.67;;;;;;;;;;5005849;28;20524;-68
2022/01/26 19:53:24;;;;;;;46.97;18.05;;;;;;;;;;5007817;28;20046;-67
2022/01/26 19:55:50;;;;;;;47.85;18.35;;;;;;;;;;5013851;28;20504;-68
2022/01/26 19:58:17;;;;;;;45.85;18.25;;;;;;;;;;5008019;28;20050;-67
2022/01/26 20:00:46;;;;;;;39.67;17.17;;;;;;;;;;5007989;28;20056;-66
2022/01/26 20:03:13;;;;;;;43.50;17.25;;;;;;;;;;4990577;28;20038;-69
2022/01/26 20:05:45;;;;;;;40.60;16.08;;;;;;;;;;4988280;28;20404;-68
2022/01/26 20:08:34;;;;;;;35.67;16.15;;;;;;;;;;5006269;28;20093;-67
2022/01/26 20:11:53;;;;;;;38.80;16.17;;;;;;;;;;5018125;28;20088;-69
2022/01/26 20:13:54;;;;;;;39.28;16.42;;;;;;;;;;5005889;28;20468;-69
2022/01/26 20:16:21;;;;;;;39.55;17.20;;;;;;;;;;5006787;28;20131;-69
2022/01/26 20:18:48;;;;;;;36.40;15.35;;;;;;;;;;5017139;28;20053;-67
2022/01/26 20:21:14;;;;;;;40.72;15.93;;;;;;;;;;5008103;28;20476;-66
2022/01/26 20:23:41;;;;;;;44.70;17.75;;;;;;;;;;5007784;28;20109;-66
2022/01/26 20:26:08;;;;;;;42.45;16.65;;;;;;;;;;5008689;28;20050;-66
2022/01/26 20:28:37;;;;;;;39.28;16.95;;;;;;;;;;5008692;28;20135;-68
2022/01/26 20:31:06;;;;;;;37.05;15.82;;;;;;;;;;5006958;28;20077;-66
2022/01/26 20:33:33;;;;;;;39.17;16.58;;;;;;;;;;5019195;28;20100;-67
2022/01/26 20:35:59;;;;;;;44.25;16.95;;;;;;;;;;5008215;28;20054;-68
2022/01/26 20:38:26;;;;;;;38.97;15.93;;;;;;;;;;5008063;28;20488;-65
2022/01/26 20:40:56;;;;;;;38.53;16.58;;;;;;;;;;5008255;28;20060;-67
2022/01/26 20:43:23;;;;;;;38.40;16.00;;;;;;;;;;5006612;28;20133;-66
2022/01/26 20:45:50;;;;;;;37.33;16.45;;;;;;;;;;5008398;28;20049;-66
2022/01/26 20:48:17;;;;;;;39.40;16.75;;;;;;;;;;5008059;28;20440;-66
2022/01/26 20:50:44;;;;;;;44.78;18.20;;;;;;;;;;5005569;28;20081;-66
2022/01/26 20:53:10;;;;;;;37.80;17.45;;;;;;;;;;4997326;28;20043;-66
2022/01/26 20:55:37;;;;;;;39.05;17.17;;;;;;;;;;5009717;28;20100;-66
2022/01/26 20:58:03;;;;;;;45.17;18.58;;;;;;;;;;5012672;28;20139;-65
2022/01/26 21:00:50;;;;;;;38.20;15.75;;;;;;;;;;5010394;28;20081;-65
2022/01/26 21:03:18;;;;;;;40.55;17.85;;;;;;;;;;5011726;28;20049;-66
2022/01/26 21:05:45;;;;;;;40.80;17.00;;;;;;;;;;5013445;28;20104;-66
2022/01/26 21:08:11;;;;;;;34.55;16.00;;;;;;;;;;5012382;28;20046;-66
2022/01/26 21:10:38;;;;;;;34.38;16.23;;;;;;;;;;5005610;28;20104;-66
2022/01/26 21:13:24;;;;;;;41.88;17.45;;;;;;;;;;5011734;28;20100;-68
2022/01/26 21:15:51;;;;;;;41.63;15.75;;;;;;;;;;5013609;28;20049;-67
2022/01/26 21:18:18;;;;;;;35.58;15.48;;;;;;;;;;5011998;28;20057;-65
2022/01/26 21:20:46;;;;;;;39.58;17.10;;;;;;;;;;5011185;28;20083;-66
2022/01/26 21:23:12;;;;;;;33.58;15.43;;;;;;;;;;5005717;28;20046;-66